Latest Weather Observations for Richmond

IDN60901

Issued at 10:01 am EST Friday 29 July 2016 (issued every 10 minutes, with the page automatically refreshed every 10 minutes)

About weather observations | Map of Sydney area stations | Latest observations for Sydney area | Other Formats
Station Details ID: 067105 Name: RICHMOND RAAF Lat: -33.60 Lon: 150.78 Height: 19.0 m
Data from the previous 72 hours. | See also: Recent months at Richmond
Date/Time
EST
Temp
°C
App
Temp
°C
Dew
Point
°C
Rel
Hum
%
Delta-T
°C
Wind Press
QNH
hPa
Press
MSL
hPa
Rain since
9am
mm
Dir  Spd
km/h
Gust
km/h
Spd
kts
Gust
kts
29/10:00am 9.0 6.2 3.2 67 2.5 N 7 9 4 5 1023.1 1023.2 0.0
29/09:30am 7.7 5.9 3.4 74 1.8 NNW 2 6 1 3 1023.4 1023.5 0.0
29/09:00am 6.0 3.9 3.7 85 1.0 N 4 7 2 4 1023.5 1023.6 0.0
29/08:30am 3.8 2.4 3.5 98 0.1 CALM 0 0 0 0 1023.6 1023.7 0.0
29/08:09am 2.2 0.1 1.9 98 0.1 NNW 2 6 1 3 1023.6 1023.7 0.0
29/08:04am 1.9 -0.2 1.6 98 0.1 N 2 6 1 3 1023.6 1023.7 0.0
29/08:00am 1.8 -0.3 1.5 98 0.1 NNW 2 7 1 4 1023.5 1023.6 0.0
29/07:48am 0.9 -1.8 0.6 98 0.1 NNW 4 6 2 3 1023.5 1023.6 0.0
29/07:40am 0.6 -2.1 0.3 98 0.1 NW 4 6 2 3 1023.5 1023.6 0.0
29/07:30am 0.4 -1.6 0.1 98 0.1 CALM 0 0 0 0 1023.6 1023.7 0.0
29/07:13am -0.2 -2.3 -0.5 98 0.1 CALM 0 0 0 0 1023.4 1023.5 0.0
29/07:01am -0.8 -3.3 -1.1 98 0.1 SW 2 6 1 3 1023.4 1023.5 0.0
29/07:00am -0.6 -3.1 -0.9 98 0.1 SW 2 6 1 3 1023.4 1023.5 0.0
29/06:35am -0.7 -2.8 -1.0 98 0.1 CALM 0 0 0 0 1023.2 1023.3 0.0
29/06:31am -0.5 -2.6 -0.8 98 0.1 CALM 0 0 0 0 1023.1 1023.2 0.0
29/06:30am -0.6 -2.7 -0.9 98 0.1 CALM 0 0 0 0 1023.1 1023.2 0.0
29/06:08am -0.2 -2.6 -0.5 98 0.1 WSW 2 6 1 3 1022.9 1022.9 0.0
29/06:00am 0.1 -2.7 -0.2 98 0.1 WSW 4 6 2 3 1022.8 1022.8 0.0
29/05:49am -0.1 -2.5 -0.4 98 0.1 SSE 2 6 1 3 1022.7 1022.7 0.0
29/05:30am 0.5 -1.5 0.2 98 0.1 CALM 0 0 0 0 1022.6 1022.6 0.0
29/05:00am 0.5 -1.5 0.2 98 0.1 CALM 0 0 0 0 1022.4 1022.4 0.0
29/04:55am 0.7 -1.2 0.4 98 0.1 CALM 0 0 0 0 1022.3 1022.3 0.0
29/04:30am 0.7 -1.2 0.4 98 0.1 CALM 0 0 0 0 1022.3 1022.3 0.0
29/04:13am 1.4 -0.8 1.1 98 0.1 N 2 6 1 3 1022.4 1022.4 0.0
29/04:00am 1.6 -0.2 1.3 98 0.1 CALM 0 0 0 0 1022.4 1022.4 0.0
29/03:56am 1.6 -0.2 1.3 98 0.1 CALM 0 0 0 0 1022.5 1022.5 0.0
29/03:39am 0.8 -1.1 0.5 98 0.1 CALM 0 0 0 0 1022.4 1022.4 0.0
29/03:30am 1.2 -1.8 0.9 98 0.1 NNW 6 7 3 4 1022.4 1022.4 0.0
29/03:00am 1.5 -0.3 1.1 97 0.1 CALM 0 0 0 0 1022.5 1022.5 0.0
29/02:30am 2.3 0.6 2.0 98 0.1 CALM 0 0 0 0 1022.7 1022.7 0.0
29/02:00am 2.3 0.6 1.9 97 0.2 CALM 0 0 0 0 1022.9 1022.9 0.0
29/01:30am 2.5 0.8 2.1 97 0.2 CALM 0 0 0 0 1022.9 1022.9 0.0
29/01:00am 3.0 1.3 2.0 93 0.4 CALM 0 0 0 0 1022.9 1022.9 0.0
29/12:30am 3.7 2.2 2.8 94 0.4 CALM 0 0 0 0 1023.1 1023.2 0.0
29/12:00am 4.0 1.3 2.4 89 0.6 NNW 6 7 3 4 1023.0 1023.0 0.0
 
Date/Time
EST
Temp
°C
App
Temp
°C
Dew
Point
°C
Rel
Hum
%
Delta-T
°C
Wind Press
QNH
hPa
Press
MSL
hPa
Rain since
9am
mm
Dir  Spd
km/h
Gust
km/h
Spd
kts
Gust
kts
28/11:30pm 4.1 2.5 2.5 89 0.6 CALM 0 0 0 0 1023.0 1023.0 0.0
28/11:00pm 5.0 3.5 3.0 87 0.8 CALM 0 2 0 1 1023.2 1023.3 0.0
28/10:30pm 5.0 2.2 2.9 86 0.9 NW 7 11 4 6 1023.0 1023.0 0.0
28/10:00pm 5.7 3.3 2.2 78 1.4 SSW 4 9 2 5 1023.0 1023.0 0.0
28/09:30pm 8.0 4.9 3.8 75 1.8 SSW 9 11 5 6 1022.9 1022.9 0.0
28/09:00pm 7.8 5.0 2.1 67 2.3 SSE 6 9 3 5 1023.0 1023.0 0.0
28/08:30pm 7.8 4.9 2.7 70 2.1 SSW 7 9 4 5 1022.7 1022.7 0.0
28/08:00pm 10.6 7.5 3.4 61 3.1 SW 9 11 5 6 1022.5 1022.5 0.0
28/07:30pm 11.5 8.8 3.5 58 3.5 SW 7 11 4 6 1022.5 1022.5 0.0
28/07:00pm 11.6 8.3 4.3 61 3.3 SW 11 17 6 9 1022.2 1022.2 0.0
28/06:30pm 12.7 10.2 4.7 58 3.7 WNW 7 7 4 4 1022.0 1022.0 0.0
28/06:00pm 14.2 10.2 4.8 53 4.4 W 15 20 8 11 1021.5 1021.5 0.0
28/05:30pm 15.2 11.5 4.6 49 4.9 WSW 13 17 7 9 1021.1 1021.1 0.0
28/05:00pm 16.7 12.7 5.0 46 5.6 WNW 15 22 8 12 1020.7 1020.7 0.0
28/04:30pm 18.2 14.7 5.4 43 6.2 NW 13 20 7 11 1020.3 1020.3 0.0
28/04:00pm 19.3 17.5 5.4 40 6.8 NE 4 9 2 5 1020.4 1020.4 0.0
28/03:30pm 19.0 16.7 5.5 41 6.6 ESE 7 9 4 5 1020.4 1020.4 0.0
28/03:00pm 19.0 15.7 4.7 39 6.9 ENE 11 15 6 8 1020.3 1020.3 0.0
28/02:30pm 19.4 17.2 5.1 39 7.0 NE 6 9 3 5 1020.6 1020.6 0.0
28/02:00pm 18.4 15.4 4.2 39 6.7 E 9 15 5 8 1020.9 1020.9 0.0
28/01:30pm 18.6 15.3 4.8 40 6.6 ENE 11 17 6 9 1021.2 1021.2 0.0
28/01:00pm 18.1 14.9 5.0 42 6.3 NE 11 15 6 8 1021.6 1021.6 0.0
28/12:30pm 17.5 14.2 4.5 42 6.2 N 11 17 6 9 1022.1 1022.1 0.0
28/12:00pm 16.5 13.5 5.8 49 5.1 NNE 11 17 6 9 1022.8 1022.8 0.0
28/11:30am 15.1 12.3 5.3 52 4.6 N 9 15 5 8 1023.6 1023.7 0.0
28/11:00am 14.0 11.3 5.6 57 3.9 NNE 9 17 5 9 1024.2 1024.3 0.0
28/10:30am 12.9 10.4 4.8 58 3.7 N 7 11 4 6 1024.7 1024.8 0.0
28/10:00am 11.9 10.1 5.5 65 2.9 N 4 9 2 5 1025.0 1025.1 0.0
28/09:30am 10.3 8.0 5.7 73 2.1 N 7 11 4 6 1024.8 1024.9 0.0
28/09:00am 7.9 5.8 5.7 86 1.0 N 6 9 3 5 1024.9 1025.0 0.0
28/08:30am 6.6 4.4 5.2 91 0.6 NNW 6 9 3 5 1024.7 1024.8 0.0
28/08:00am 5.4 3.5 5.1 98 0.1 SSE 4 7 2 4 1024.3 1024.4 0.0
28/07:30am 3.2 0.9 2.9 98 0.1 SSE 4 11 2 6 1023.8 1023.9 0.0
28/07:00am 1.5 -0.3 1.2 98 0.1 CALM 0 0 0 0 1023.5 1023.6 0.0
28/06:30am 2.1 0.0 1.8 98 0.1 W 2 7 1 4 1022.9 1022.9 0.0
28/06:00am 2.6 1.0 2.3 98 0.1 CALM 0 6 0 3 1022.8 1022.8 0.0
28/05:30am 2.5 0.1 2.2 98 0.1 SE 4 9 2 5 1022.3 1022.3 0.0
28/05:00am 2.1 -0.9 1.7 97 0.2 S 7 11 4 6 1021.8 1021.8 0.0
28/04:30am 2.8 1.2 2.2 96 0.2 CALM 0 2 0 1 1021.4 1021.4 0.0
28/04:00am 3.8 1.0 3.4 97 0.2 ESE 7 11 4 6 1021.3 1021.3 0.0
28/03:30am 4.0 2.6 3.4 96 0.2 CALM 0 0 0 0 1021.1 1021.1 0.0
28/03:00am 3.7 0.8 2.7 93 0.4 NNW 7 9 4 5 1021.2 1021.2 0.0
28/02:30am 4.2 1.4 3.2 93 0.4 NE 7 11 4 6 1021.7 1021.7 0.0
28/02:00am 4.2 2.3 2.9 91 0.5 W 2 7 1 4 1021.9 1021.9 0.0
28/01:30am 4.8 1.7 3.6 92 0.5 NNE 9 13 5 7 1022.0 1022.0 0.0
28/01:00am 4.5 1.7 3.2 91 0.5 SW 7 13 4 7 1021.6 1021.6 0.0
28/12:30am 4.3 1.6 2.5 88 0.7 SSW 6 13 3 7 1021.4 1021.4 0.0
28/12:00am 5.1 2.8 2.5 83 1.1 S 4 7 2 4 1021.0 1021.0 0.0
 
Date/Time
EST
Temp
°C
App
Temp
°C
Dew
Point
°C
Rel
Hum
%
Delta-T
°C
Wind Press
QNH
hPa
Press
MSL
hPa
Rain since
9am
mm
Dir  Spd
km/h
Gust
km/h
Spd
kts
Gust
kts
27/11:30pm 6.6 4.0 3.4 80 1.3 NW 6 9 3 5 1020.5 1020.5 0.0
27/11:00pm 7.7 4.6 3.6 75 1.7 NNW 9 11 5 6 1020.4 1020.4 0.0
27/10:30pm 8.1 6.4 3.8 74 1.9 NW 2 6 1 3 1020.5 1020.5 0.0
27/10:00pm 8.2 6.7 3.1 70 2.2 CALM 0 6 0 3 1020.4 1020.4 0.0
27/09:30pm 8.4 5.6 3.3 70 2.2 NNE 7 9 4 5 1020.1 1020.1 0.0
27/09:00pm 11.2 8.5 3.5 59 3.4 WNW 7 9 4 5 1019.8 1019.8 0.0
27/08:30pm 11.4 8.3 3.7 59 3.4 NW 9 11 5 6 1019.6 1019.6 0.0
27/08:00pm 12.3 9.3 4.0 57 3.7 W 9 17 5 9 1019.3 1019.3 0.0
27/07:30pm 12.2 9.2 4.2 58 3.6 W 9 17 5 9 1019.0 1019.0 0.0
27/07:00pm 12.9 8.8 4.6 57 3.8 W 15 22 8 12 1018.5 1018.5 0.0
27/06:30pm 12.9 9.3 5.1 59 3.6 W 13 20 7 11 1017.8 1017.8 0.0
27/06:00pm 12.2 8.5 4.4 59 3.5 WNW 13 17 7 9 1017.1 1017.1 0.0
27/05:30pm 14.5 8.7 4.2 50 4.7 WSW 24 33 13 18 1016.5 1016.5 0.0
27/05:00pm 15.2 8.9 4.0 47 5.2 WSW 26 37 14 20 1016.2 1016.2 0.0
27/04:30pm 16.2 10.0 4.3 45 5.6 W 26 33 14 18 1015.7 1015.7 0.0
27/04:00pm 16.7 9.8 4.4 44 5.8 W 30 43 16 23 1015.2 1015.2 0.0
27/03:30pm 17.0 10.5 4.7 44 5.8 W 28 39 15 21 1014.8 1014.8 0.0
27/03:00pm 17.4 10.0 4.0 41 6.3 WSW 32 44 17 24 1014.5 1014.5 0.0
27/02:38pm 17.6 9.7 4.2 41 6.3 WSW 35 56 19 30 1014.2 1014.2 0.0
27/02:30pm 17.4 10.0 4.0 41 6.3 WSW 32 43 17 23 1014.2 1014.2 0.0
27/02:04pm 17.7 10.3 3.9 40 6.5 W 32 52 17 28 1013.5 1013.5 0.0
27/02:00pm 18.0 10.7 4.6 41 6.4 WSW 32 46 17 25 1013.8 1013.8 0.0
27/01:33pm 17.3 9.8 3.6 40 6.4 WSW 32 54 17 29 1013.7 1013.7 0.0
27/01:30pm 17.2 9.8 3.8 41 6.3 WSW 32 46 17 25 1013.8 1013.8 0.0
27/01:00pm 17.7 9.9 2.8 37 6.8 W 33 54 18 29 1013.3 1013.3 0.0
27/12:59pm 18.3 10.8 3.4 37 7.0 W 32 52 17 28 1013.5 1013.5 0.0
27/12:44pm 17.9 10.3 3.0 37 6.9 W 32 52 17 28 1013.1 1013.1 0.0
27/12:41pm 18.1 10.4 3.6 38 6.8 W 33 52 18 28 1013.2 1013.2 0.0
27/12:34pm 18.0 9.1 3.1 37 6.9 WNW 39 57 21 31 1013.1 1013.1 0.0
27/12:30pm 17.5 8.2 2.7 37 6.8 WNW 41 57 22 31 1013.1 1013.1 0.0
27/12:00pm 16.8 5.8 3.1 40 6.3 W 50 70 27 38 1013.4 1013.4 0.0
27/11:57am 16.6 6.0 3.0 40 6.2 W 48 70 26 38 1013.4 1013.4 0.0
27/11:53am 16.6 7.2 2.6 39 6.3 W 41 70 22 38 1013.3 1013.3 0.0
27/11:37am 17.3 8.9 3.9 41 6.3 W 37 56 20 30 1013.6 1013.6 0.0
27/11:30am 17.0 7.8 3.3 40 6.3 WNW 41 54 22 29 1013.5 1013.5 0.0
27/11:11am 16.8 8.1 4.2 43 5.9 W 39 57 21 31 1012.9 1012.9 0.0
27/11:00am 16.9 8.8 5.2 46 5.6 W 37 52 20 28 1013.0 1013.0 0.0
27/10:30am 15.8 8.6 5.7 51 4.8 W 33 43 18 23 1013.2 1013.2 0.0
27/10:05am 16.9 10.5 5.2 46 5.6 WNW 28 50 15 27 1013.1 1013.1 0.0
27/10:00am 17.1 11.4 5.1 45 5.7 W 24 50 13 27 1013.1 1013.1 0.0
27/09:30am 16.7 12.0 5.9 49 5.2 NW 20 33 11 18 1012.9 1012.9 0.0
27/09:00am 15.4 10.7 6.2 54 4.4 NW 20 28 11 15 1012.7 1012.7 0.0
27/08:30am 14.1 9.0 6.2 59 3.8 NNW 22 30 12 16 1012.6 1012.6 0.0
27/08:00am 12.8 8.1 6.2 64 3.1 NNW 20 30 11 16 1012.6 1012.6 0.0
27/07:30am 11.0 6.8 5.7 70 2.5 N 17 26 9 14 1012.6 1012.6 0.0
27/07:00am 9.9 5.0 4.9 71 2.2 N 20 26 11 14 1012.7 1012.7 0.0
27/06:30am 10.0 5.9 4.6 69 2.4 NNE 15 22 8 12 1012.9 1012.9 0.0
27/06:00am 12.5 9.5 4.2 57 3.8 NNW 9 13 5 7 1012.6 1012.6 0.0
27/05:30am 10.6 7.2 3.9 63 3.0 N 11 13 6 7 1012.7 1012.7 0.0
27/05:00am 10.2 6.9 4.4 67 2.6 NNW 11 17 6 9 1012.6 1012.6 0.0
27/04:30am 9.5 6.0 5.5 76 1.8 NNW 13 20 7 11 1012.9 1012.9 0.0
27/04:00am 8.6 4.7 5.2 79 1.5 NE 15 17 8 9 1012.2 1012.2 0.0
27/03:30am 8.8 5.5 4.8 76 1.8 NNE 11 13 6 7 1012.2 1012.2 0.0
27/03:00am 6.9 4.0 4.7 86 1.0 NE 9 13 5 7 1012.5 1012.5 0.0
27/02:30am 5.1 1.7 3.9 92 0.5 NE 11 13 6 7 1013.1 1013.1 0.0
27/02:00am 5.3 2.8 4.0 91 0.5 SSW 6 7 3 4 1013.9 1013.9 0.0
27/01:30am 6.0 4.6 3.7 85 1.0 CALM 0 2 0 1 1014.1 1014.1 0.0
27/01:00am 6.8 4.3 4.6 86 1.0 SW 7 9 4 5 1014.0 1014.0 0.0
27/12:30am 6.5 4.0 3.7 82 1.2 S 6 7 3 4 1014.1 1014.1 0.0
27/12:00am 6.6 4.0 3.2 79 1.4 S 6 9 3 5 1014.3 1014.3 0.0
 
Date/Time
EST
Temp
°C
App
Temp
°C
Dew
Point
°C
Rel
Hum
%
Delta-T
°C
Wind Press
QNH
hPa
Press
MSL
hPa
Rain since
9am
mm
Dir  Spd
km/h
Gust
km/h
Spd
kts
Gust
kts
26/11:30pm 9.6 6.9 2.5 61 3.0 NW 6 7 3 4 1014.3 1014.3 0.0
26/11:00pm 11.1 8.4 2.9 57 3.6 NNE 6 7 3 4 1014.6 1014.6 0.0
26/10:30pm 12.0 8.8 3.0 54 4.0 NE 9 11 5 6 1014.7 1014.7 0.0
26/10:00pm 11.7 8.1 3.2 56 3.7 NNE 11 15 6 8 1014.7 1014.7 0.0
26/09:30pm 12.7 8.8 3.4 53 4.1 N 13 17 7 9 1014.6 1014.6 0.0
26/09:00pm 12.2 8.4 3.7 56 3.8 NNW 13 17 7 9 1014.7 1014.7 0.0
26/08:30pm 12.1 9.3 3.3 55 3.9 N 7 9 4 5 1014.7 1014.7 0.0
26/08:00pm 12.3 9.2 3.5 55 3.9 WNW 9 19 5 10 1014.6 1014.6 0.0
26/07:30pm 12.1 9.1 3.9 57 3.7 WNW 9 13 5 7 1014.7 1014.7 0.0
26/07:00pm 12.6 9.6 4.3 57 3.8 W 9 11 5 6 1014.5 1014.5 0.0
26/06:30pm 12.9 9.5 3.8 54 4.1 SW 11 15 6 8 1014.1 1014.1 0.0
26/06:00pm 14.2 10.7 3.7 49 4.8 WSW 11 15 6 8 1014.0 1014.0 0.0
26/05:30pm 14.5 10.6 3.6 48 5.0 WSW 13 19 7 10 1013.8 1013.8 0.0
26/05:00pm 15.7 11.1 3.8 45 5.5 WSW 17 26 9 14 1013.5 1013.5 0.0
26/04:30pm 16.9 12.0 4.3 43 5.9 WSW 19 24 10 13 1013.2 1013.2 0.0
26/04:00pm 17.6 12.0 3.5 39 6.6 WSW 22 35 12 19 1013.1 1013.1 0.0
26/03:30pm 18.0 12.4 3.5 38 6.8 WSW 22 30 12 16 1013.0 1013.0 0.0
26/03:00pm 18.6 12.2 3.3 36 7.1 WSW 26 37 14 20 1013.0 1013.0 0.0
26/02:30pm 18.8 12.0 3.0 35 7.3 WSW 28 41 15 22 1012.9 1012.9 0.0
26/02:00pm 18.6 12.1 2.9 35 7.3 WSW 26 35 14 19 1013.0 1013.0 0.0
26/01:33pm 18.6 10.4 2.9 35 7.3 WSW 35 54 19 29 1013.1 1013.1 0.0
26/01:30pm 18.7 10.1 2.5 34 7.4 W 37 54 20 29 1013.1 1013.1 0.0
26/01:23pm 18.5 10.7 2.8 35 7.2 W 33 54 18 29 1012.9 1012.9 0.0
26/01:00pm 18.5 10.2 1.9 33 7.5 W 35 50 19 27 1013.3 1013.3 0.0
26/12:52pm 18.5 11.5 1.9 33 7.5 W 28 50 15 27 1013.3 1013.3 0.0
26/12:30pm 18.2 12.1 2.9 36 7.1 WNW 24 33 13 18 1013.6 1013.6 0.0
26/12:00pm 18.1 11.4 3.9 39 6.7 WNW 28 39 15 21 1014.1 1014.1 0.0
26/11:30am 18.3 13.9 4.5 40 6.6 WNW 17 32 9 17 1014.3 1014.3 0.0
26/11:00am 17.6 12.5 3.9 40 6.4 WNW 20 28 11 15 1014.7 1014.7 0.0
26/10:30am 17.4 14.2 5.0 44 5.9 W 11 17 6 9 1014.7 1014.7 0.0

Latest Capital City Observations: Canberra | Sydney | Melbourne | Brisbane | Adelaide | Perth | Hobart | Darwin

Other Formats:

Comma delimited format used in spreadsheet applications
http://www.bom.gov.au/fwo/IDN60901/IDN60901.95753.axf

JavaScript Object Notation format (JSON) in row-major order
http://www.bom.gov.au/fwo/IDN60901/IDN60901.95753.json